sensor_id;sensor_type;location;lat;lon;timestamp;temperature;humidity
55771;DHT22;41687;-33.234;-60.334;2023-02-15T00:01:08;25.60;48.60
55771;DHT22;41687;-33.234;-60.334;2023-02-15T00:03:37;25.50;49.40
55771;DHT22;41687;-33.234;-60.334;2023-02-15T00:06:05;25.40;49.30
55771;DHT22;41687;-33.234;-60.334;2023-02-15T00:08:33;25.40;49.50
55771;DHT22;41687;-33.234;-60.334;2023-02-15T00:11:19;25.40;49.50
55771;DHT22;41687;-33.234;-60.334;2023-02-15T00:14:24;25.40;49.30
55771;DHT22;41687;-33.234;-60.334;2023-02-15T00:16:52;25.50;49.40
55771;DHT22;41687;-33.234;-60.334;2023-02-15T00:19:22;25.40;49.90
55771;DHT22;41687;-33.234;-60.334;2023-02-15T00:21:49;25.30;50.20
55771;DHT22;41687;-33.234;-60.334;2023-02-15T00:24:18;25.40;50.40
55771;DHT22;41687;-33.234;-60.334;2023-02-15T00:26:47;25.40;50.20
55771;DHT22;41687;-33.234;-60.334;2023-02-15T00:29:17;25.40;50.50
55771;DHT22;41687;-33.234;-60.334;2023-02-15T00:31:45;25.30;50.40
55771;DHT22;41687;-33.234;-60.334;2023-02-15T00:34:18;25.30;50.50
55771;DHT22;41687;-33.234;-60.334;2023-02-15T00:36:47;25.30;50.70
55771;DHT22;41687;-33.234;-60.334;2023-02-15T00:39:16;25.30;50.60
55771;DHT22;41687;-33.234;-60.334;2023-02-15T00:41:44;25.30;50.90
55771;DHT22;41687;-33.234;-60.334;2023-02-15T00:44:13;25.30;50.60
55771;DHT22;41687;-33.234;-60.334;2023-02-15T00:46:41;25.30;50.60
55771;DHT22;41687;-33.234;-60.334;2023-02-15T00:49:10;25.30;50.80
55771;DHT22;41687;-33.234;-60.334;2023-02-15T00:51:38;25.20;50.60
55771;DHT22;41687;-33.234;-60.334;2023-02-15T00:54:06;25.30;50.90
55771;DHT22;41687;-33.234;-60.334;2023-02-15T00:56:34;25.30;50.90
55771;DHT22;41687;-33.234;-60.334;2023-02-15T00:59:01;25.30;50.90
55771;DHT22;41687;-33.234;-60.334;2023-02-15T01:01:31;25.30;50.70
55771;DHT22;41687;-33.234;-60.334;2023-02-15T01:03:59;25.30;50.70
55771;DHT22;41687;-33.234;-60.334;2023-02-15T01:06:29;25.30;50.70
55771;DHT22;41687;-33.234;-60.334;2023-02-15T01:08:57;25.40;50.70
55771;DHT22;41687;-33.234;-60.334;2023-02-15T01:11:24;25.40;50.60
55771;DHT22;41687;-33.234;-60.334;2023-02-15T01:13:54;25.30;50.20
55771;DHT22;41687;-33.234;-60.334;2023-02-15T01:16:23;25.30;50.40
55771;DHT22;41687;-33.234;-60.334;2023-02-15T01:18:51;25.30;50.50
55771;DHT22;41687;-33.234;-60.334;2023-02-15T01:21:21;25.40;50.50
55771;DHT22;41687;-33.234;-60.334;2023-02-15T01:23:49;25.40;50.20
55771;DHT22;41687;-33.234;-60.334;2023-02-15T01:26:17;25.40;50.20
55771;DHT22;41687;-33.234;-60.334;2023-02-15T01:28:45;25.40;50.20
55771;DHT22;41687;-33.234;-60.334;2023-02-15T01:31:15;25.40;50.10
55771;DHT22;41687;-33.234;-60.334;2023-02-15T01:33:46;25.40;50.00
55771;DHT22;41687;-33.234;-60.334;2023-02-15T01:36:14;25.30;50.10
55771;DHT22;41687;-33.234;-60.334;2023-02-15T01:38:44;25.30;50.10
55771;DHT22;41687;-33.234;-60.334;2023-02-15T01:41:12;25.30;50.40
55771;DHT22;41687;-33.234;-60.334;2023-02-15T01:44:01;25.20;50.40
55771;DHT22;41687;-33.234;-60.334;2023-02-15T01:46:33;25.20;49.70
55771;DHT22;41687;-33.234;-60.334;2023-02-15T01:49:14;25.20;50.20
55771;DHT22;41687;-33.234;-60.334;2023-02-15T01:51:44;25.20;50.50
55771;DHT22;41687;-33.234;-60.334;2023-02-15T01:54:32;25.10;50.10
55771;DHT22;41687;-33.234;-60.334;2023-02-15T01:57:16;25.00;49.60
55771;DHT22;41687;-33.234;-60.334;2023-02-15T01:59:51;24.90;49.60
55771;DHT22;41687;-33.234;-60.334;2023-02-15T02:02:20;24.80;50.10
55771;DHT22;41687;-33.234;-60.334;2023-02-15T02:04:56;24.70;50.20
55771;DHT22;41687;-33.234;-60.334;2023-02-15T02:07:28;24.60;50.20
55771;DHT22;41687;-33.234;-60.334;2023-02-15T02:10:00;24.60;50.10
55771;DHT22;41687;-33.234;-60.334;2023-02-15T02:12:29;24.50;50.40
55771;DHT22;41687;-33.234;-60.334;2023-02-15T02:14:57;24.50;50.50
55771;DHT22;41687;-33.234;-60.334;2023-02-15T02:35:15;24.00;50.50
55771;DHT22;41687;-33.234;-60.334;2023-02-15T02:46:46;23.70;50.90
55771;DHT22;41687;-33.234;-60.334;2023-02-15T02:48:41;23.60;51.10
55771;DHT22;41687;-33.234;-60.334;2023-02-15T02:51:08;23.60;51.40
55771;DHT22;41687;-33.234;-60.334;2023-02-15T02:53:36;23.60;51.40
55771;DHT22;41687;-33.234;-60.334;2023-02-15T02:56:13;23.50;51.70
55771;DHT22;41687;-33.234;-60.334;2023-02-15T02:58:50;23.50;51.70
55771;DHT22;41687;-33.234;-60.334;2023-02-15T03:01:29;23.40;51.90
55771;DHT22;41687;-33.234;-60.334;2023-02-15T03:04:05;23.40;51.70
55771;DHT22;41687;-33.234;-60.334;2023-02-15T03:06:48;23.30;51.90
55771;DHT22;41687;-33.234;-60.334;2023-02-15T03:09:39;23.30;52.00
55771;DHT22;41687;-33.234;-60.334;2023-02-15T03:12:14;23.30;52.00
55771;DHT22;41687;-33.234;-60.334;2023-02-15T03:14:52;23.30;52.10
55771;DHT22;41687;-33.234;-60.334;2023-02-15T03:17:23;23.20;52.50
55771;DHT22;41687;-33.234;-60.334;2023-02-15T03:19:57;23.20;51.80
55771;DHT22;41687;-33.234;-60.334;2023-02-15T03:22:36;23.20;52.00
55771;DHT22;41687;-33.234;-60.334;2023-02-15T03:25:32;23.20;51.80
55771;DHT22;41687;-33.234;-60.334;2023-02-15T03:28:05;23.00;52.20
55771;DHT22;41687;-33.234;-60.334;2023-02-15T03:30:37;22.90;52.00
55771;DHT22;41687;-33.234;-60.334;2023-02-15T03:33:07;22.90;52.00
55771;DHT22;41687;-33.234;-60.334;2023-02-15T03:35:49;22.80;52.10
55771;DHT22;41687;-33.234;-60.334;2023-02-15T03:38:22;22.70;52.40
55771;DHT22;41687;-33.234;-60.334;2023-02-15T03:40:54;22.70;52.30
55771;DHT22;41687;-33.234;-60.334;2023-02-15T03:43:48;22.60;52.00
55771;DHT22;41687;-33.234;-60.334;2023-02-15T03:46:21;22.50;52.60
55771;DHT22;41687;-33.234;-60.334;2023-02-15T03:49:05;22.50;52.20
55771;DHT22;41687;-33.234;-60.334;2023-02-15T03:51:36;22.50;52.50
55771;DHT22;41687;-33.234;-60.334;2023-02-15T03:54:08;22.40;52.10
55771;DHT22;41687;-33.234;-60.334;2023-02-15T03:56:39;22.40;52.20
55771;DHT22;41687;-33.234;-60.334;2023-02-15T03:59:09;22.40;52.00
55771;DHT22;41687;-33.234;-60.334;2023-02-15T04:04:41;22.30;51.90
55771;DHT22;41687;-33.234;-60.334;2023-02-15T04:07:10;22.20;52.10
55771;DHT22;41687;-33.234;-60.334;2023-02-15T04:09:38;21.90;52.20
55771;DHT22;41687;-33.234;-60.334;2023-02-15T04:12:24;21.80;52.30
55771;DHT22;41687;-33.234;-60.334;2023-02-15T04:14:52;21.90;52.20
55771;DHT22;41687;-33.234;-60.334;2023-02-15T04:17:38;21.90;52.00
55771;DHT22;41687;-33.234;-60.334;2023-02-15T04:20:06;21.90;52.10
55771;DHT22;41687;-33.234;-60.334;2023-02-15T04:22:52;21.90;51.70
55771;DHT22;41687;-33.234;-60.334;2023-02-15T04:25:37;21.90;51.70
55771;DHT22;41687;-33.234;-60.334;2023-02-15T04:28:05;21.80;52.00
55771;DHT22;41687;-33.234;-60.334;2023-02-15T04:30:35;21.70;52.00
55771;DHT22;41687;-33.234;-60.334;2023-02-15T04:33:02;21.70;52.10
55771;DHT22;41687;-33.234;-60.334;2023-02-15T04:35:29;21.60;52.00
55771;DHT22;41687;-33.234;-60.334;2023-02-15T04:37:58;21.50;52.00
55771;DHT22;41687;-33.234;-60.334;2023-02-15T04:40:26;21.50;52.20
55771;DHT22;41687;-33.234;-60.334;2023-02-15T04:42:53;21.50;52.10
55771;DHT22;41687;-33.234;-60.334;2023-02-15T04:45:21;21.50;52.10
55771;DHT22;41687;-33.234;-60.334;2023-02-15T04:47:48;21.30;52.30
55771;DHT22;41687;-33.234;-60.334;2023-02-15T04:50:17;21.20;52.50
55771;DHT22;41687;-33.234;-60.334;2023-02-15T04:52:44;21.30;52.40
55771;DHT22;41687;-33.234;-60.334;2023-02-15T04:55:12;21.30;52.60
55771;DHT22;41687;-33.234;-60.334;2023-02-15T04:57:40;21.10;53.00
55771;DHT22;41687;-33.234;-60.334;2023-02-15T05:00:09;21.20;52.90
55771;DHT22;41687;-33.234;-60.334;2023-02-15T05:02:36;21.10;52.90
55771;DHT22;41687;-33.234;-60.334;2023-02-15T05:05:04;21.10;53.10
55771;DHT22;41687;-33.234;-60.334;2023-02-15T05:07:32;21.00;53.20
55771;DHT22;41687;-33.234;-60.334;2023-02-15T05:10:00;21.00;53.10
55771;DHT22;41687;-33.234;-60.334;2023-02-15T05:12:27;20.90;53.10
55771;DHT22;41687;-33.234;-60.334;2023-02-15T05:14:54;20.90;53.10
55771;DHT22;41687;-33.234;-60.334;2023-02-15T05:17:22;21.00;53.10
55771;DHT22;41687;-33.234;-60.334;2023-02-15T05:19:50;21.00;53.20
55771;DHT22;41687;-33.234;-60.334;2023-02-15T05:22:17;21.00;53.20
55771;DHT22;41687;-33.234;-60.334;2023-02-15T05:24:45;21.00;53.00
55771;DHT22;41687;-33.234;-60.334;2023-02-15T05:27:31;21.00;52.80
55771;DHT22;41687;-33.234;-60.334;2023-02-15T05:30:18;21.10;52.80
55771;DHT22;41687;-33.234;-60.334;2023-02-15T05:32:46;20.90;52.90
55771;DHT22;41687;-33.234;-60.334;2023-02-15T05:35:15;20.90;53.00
55771;DHT22;41687;-33.234;-60.334;2023-02-15T05:37:42;20.80;53.10
55771;DHT22;41687;-33.234;-60.334;2023-02-15T05:40:10;20.90;53.00
55771;DHT22;41687;-33.234;-60.334;2023-02-15T05:42:37;20.80;53.20
55771;DHT22;41687;-33.234;-60.334;2023-02-15T05:45:06;20.70;53.70
55771;DHT22;41687;-33.234;-60.334;2023-02-15T05:47:33;20.60;53.70
55771;DHT22;41687;-33.234;-60.334;2023-02-15T05:50:01;20.70;53.80
55771;DHT22;41687;-33.234;-60.334;2023-02-15T05:52:28;20.60;54.30
55771;DHT22;41687;-33.234;-60.334;2023-02-15T05:54:56;20.50;53.80
55771;DHT22;41687;-33.234;-60.334;2023-02-15T05:57:24;20.70;54.00
55771;DHT22;41687;-33.234;-60.334;2023-02-15T05:59:52;20.60;53.90
55771;DHT22;41687;-33.234;-60.334;2023-02-15T06:02:20;20.60;54.20
55771;DHT22;41687;-33.234;-60.334;2023-02-15T06:04:49;20.50;54.20
55771;DHT22;41687;-33.234;-60.334;2023-02-15T06:07:16;20.50;54.50
55771;DHT22;41687;-33.234;-60.334;2023-02-15T06:09:43;20.40;54.60
55771;DHT22;41687;-33.234;-60.334;2023-02-15T06:12:11;20.40;54.90
55771;DHT22;41687;-33.234;-60.334;2023-02-15T06:14:39;20.30;54.70
55771;DHT22;41687;-33.234;-60.334;2023-02-15T06:17:06;20.30;55.00
55771;DHT22;41687;-33.234;-60.334;2023-02-15T06:19:33;20.30;55.10
55771;DHT22;41687;-33.234;-60.334;2023-02-15T06:22:01;20.30;55.20
55771;DHT22;41687;-33.234;-60.334;2023-02-15T06:24:29;20.20;55.40
55771;DHT22;41687;-33.234;-60.334;2023-02-15T06:26:56;20.10;55.70
55771;DHT22;41687;-33.234;-60.334;2023-02-15T06:29:24;20.10;55.50
55771;DHT22;41687;-33.234;-60.334;2023-02-15T06:31:51;20.10;55.50
55771;DHT22;41687;-33.234;-60.334;2023-02-15T06:34:19;20.10;55.50
55771;DHT22;41687;-33.234;-60.334;2023-02-15T06:36:46;20.10;55.80
55771;DHT22;41687;-33.234;-60.334;2023-02-15T06:39:14;20.10;56.00
55771;DHT22;41687;-33.234;-60.334;2023-02-15T06:41:42;20.00;55.90
55771;DHT22;41687;-33.234;-60.334;2023-02-15T06:44:09;19.90;56.20
55771;DHT22;41687;-33.234;-60.334;2023-02-15T06:46:37;19.90;56.20
55771;DHT22;41687;-33.234;-60.334;2023-02-15T06:49:04;19.80;56.50
55771;DHT22;41687;-33.234;-60.334;2023-02-15T06:51:32;19.70;56.70
55771;DHT22;41687;-33.234;-60.334;2023-02-15T06:54:01;19.70;56.80
55771;DHT22;41687;-33.234;-60.334;2023-02-15T06:56:29;19.60;56.90
55771;DHT22;41687;-33.234;-60.334;2023-02-15T06:58:56;19.60;57.20
55771;DHT22;41687;-33.234;-60.334;2023-02-15T07:01:24;19.60;57.00
55771;DHT22;41687;-33.234;-60.334;2023-02-15T07:03:52;19.70;56.90
55771;DHT22;41687;-33.234;-60.334;2023-02-15T07:06:19;19.70;56.70
55771;DHT22;41687;-33.234;-60.334;2023-02-15T07:08:47;19.70;56.80
55771;DHT22;41687;-33.234;-60.334;2023-02-15T07:11:14;19.70;56.70
55771;DHT22;41687;-33.234;-60.334;2023-02-15T07:14:00;19.70;56.60
55771;DHT22;41687;-33.234;-60.334;2023-02-15T07:16:28;19.80;56.60
55771;DHT22;41687;-33.234;-60.334;2023-02-15T07:18:55;19.80;56.50
55771;DHT22;41687;-33.234;-60.334;2023-02-15T07:21:23;19.80;56.50
55771;DHT22;41687;-33.234;-60.334;2023-02-15T07:23:50;19.80;56.50
55771;DHT22;41687;-33.234;-60.334;2023-02-15T07:26:18;19.70;56.50
55771;DHT22;41687;-33.234;-60.334;2023-02-15T07:28:46;19.70;56.70
55771;DHT22;41687;-33.234;-60.334;2023-02-15T07:31:13;19.60;57.10
55771;DHT22;41687;-33.234;-60.334;2023-02-15T07:33:41;19.60;57.30
55771;DHT22;41687;-33.234;-60.334;2023-02-15T07:36:08;19.50;57.10
55771;DHT22;41687;-33.234;-60.334;2023-02-15T07:38:41;19.50;57.10
55771;DHT22;41687;-33.234;-60.334;2023-02-15T07:41:12;19.50;57.20
55771;DHT22;41687;-33.234;-60.334;2023-02-15T07:43:42;19.40;57.40
55771;DHT22;41687;-33.234;-60.334;2023-02-15T07:46:12;19.40;57.30
55771;DHT22;41687;-33.234;-60.334;2023-02-15T07:48:41;19.20;57.70
55771;DHT22;41687;-33.234;-60.334;2023-02-15T07:51:10;19.10;57.60
55771;DHT22;41687;-33.234;-60.334;2023-02-15T07:53:38;19.10;58.10
55771;DHT22;41687;-33.234;-60.334;2023-02-15T07:56:13;19.10;58.00
55771;DHT22;41687;-33.234;-60.334;2023-02-15T07:58:42;19.00;58.40
55771;DHT22;41687;-33.234;-60.334;2023-02-15T08:03:55;18.90;58.20
55771;DHT22;41687;-33.234;-60.334;2023-02-15T08:06:26;18.90;58.30
55771;DHT22;41687;-33.234;-60.334;2023-02-15T08:08:54;18.90;58.70
55771;DHT22;41687;-33.234;-60.334;2023-02-15T08:11:26;18.80;58.90
55771;DHT22;41687;-33.234;-60.334;2023-02-15T08:14:09;18.70;59.40
55771;DHT22;41687;-33.234;-60.334;2023-02-15T08:19:34;18.60;59.80
55771;DHT22;41687;-33.234;-60.334;2023-02-15T08:22:05;18.60;60.80
55771;DHT22;41687;-33.234;-60.334;2023-02-15T08:24:37;18.50;59.80
55771;DHT22;41687;-33.234;-60.334;2023-02-15T08:27:07;18.40;60.40
55771;DHT22;41687;-33.234;-60.334;2023-02-15T08:29:36;18.40;59.80
55771;DHT22;41687;-33.234;-60.334;2023-02-15T08:32:08;18.40;59.90
55771;DHT22;41687;-33.234;-60.334;2023-02-15T08:34:39;18.50;59.70
55771;DHT22;41687;-33.234;-60.334;2023-02-15T08:37:07;18.50;60.20
55771;DHT22;41687;-33.234;-60.334;2023-02-15T08:39:34;18.50;60.00
55771;DHT22;41687;-33.234;-60.334;2023-02-15T08:42:02;18.40;60.30
55771;DHT22;41687;-33.234;-60.334;2023-02-15T08:44:30;18.30;60.40
55771;DHT22;41687;-33.234;-60.334;2023-02-15T08:46:57;18.30;60.90
55771;DHT22;41687;-33.234;-60.334;2023-02-15T08:49:31;18.30;61.00
55771;DHT22;41687;-33.234;-60.334;2023-02-15T08:51:58;18.40;60.20
55771;DHT22;41687;-33.234;-60.334;2023-02-15T08:54:26;18.40;60.50
55771;DHT22;41687;-33.234;-60.334;2023-02-15T08:56:53;18.40;60.60
55771;DHT22;41687;-33.234;-60.334;2023-02-15T08:59:23;18.50;60.10
55771;DHT22;41687;-33.234;-60.334;2023-02-15T09:01:54;18.50;60.30
55771;DHT22;41687;-33.234;-60.334;2023-02-15T09:04:21;18.50;60.90
55771;DHT22;41687;-33.234;-60.334;2023-02-15T09:06:50;18.40;60.80
55771;DHT22;41687;-33.234;-60.334;2023-02-15T09:09:19;18.40;60.90
55771;DHT22;41687;-33.234;-60.334;2023-02-15T09:11:49;18.40;61.40
55771;DHT22;41687;-33.234;-60.334;2023-02-15T09:14:19;18.40;61.80
55771;DHT22;41687;-33.234;-60.334;2023-02-15T09:16:48;18.40;61.60
55771;DHT22;41687;-33.234;-60.334;2023-02-15T09:19:20;18.50;61.50
55771;DHT22;41687;-33.234;-60.334;2023-02-15T09:21:48;18.50;61.70
55771;DHT22;41687;-33.234;-60.334;2023-02-15T09:24:16;18.50;61.60
55771;DHT22;41687;-33.234;-60.334;2023-02-15T09:26:46;18.60;61.60
55771;DHT22;41687;-33.234;-60.334;2023-02-15T09:29:14;18.60;61.80
55771;DHT22;41687;-33.234;-60.334;2023-02-15T09:31:47;18.60;62.00
55771;DHT22;41687;-33.234;-60.334;2023-02-15T09:34:18;18.60;63.10
55771;DHT22;41687;-33.234;-60.334;2023-02-15T09:36:47;18.70;63.80
55771;DHT22;41687;-33.234;-60.334;2023-02-15T09:47:35;19.00;65.00
55771;DHT22;41687;-33.234;-60.334;2023-02-15T09:56:19;19.00;66.90
55771;DHT22;41687;-33.234;-60.334;2023-02-15T10:04:17;19.30;73.40
55771;DHT22;41687;-33.234;-60.334;2023-02-15T10:12:28;19.70;74.00
55771;DHT22;41687;-33.234;-60.334;2023-02-15T10:15:15;20.00;81.90
55771;DHT22;41687;-33.234;-60.334;2023-02-15T10:33:43;20.70;85.30
55771;DHT22;41687;-33.234;-60.334;2023-02-15T10:45:17;21.10;84.00
55771;DHT22;41687;-33.234;-60.334;2023-02-15T10:48:06;21.30;84.90
55771;DHT22;41687;-33.234;-60.334;2023-02-15T10:51:00;21.30;84.30
55771;DHT22;41687;-33.234;-60.334;2023-02-15T10:53:34;21.40;84.40
55771;DHT22;41687;-33.234;-60.334;2023-02-15T10:56:17;21.60;83.50
55771;DHT22;41687;-33.234;-60.334;2023-02-15T10:59:16;21.80;82.00
55771;DHT22;41687;-33.234;-60.334;2023-02-15T11:01:59;22.00;85.20
55771;DHT22;41687;-33.234;-60.334;2023-02-15T11:12:46;23.00;80.60
55771;DHT22;41687;-33.234;-60.334;2023-02-15T11:18:05;23.30;80.90
55771;DHT22;41687;-33.234;-60.334;2023-02-15T11:23:17;23.70;78.20
55771;DHT22;41687;-33.234;-60.334;2023-02-15T11:25:56;23.70;76.80
55771;DHT22;41687;-33.234;-60.334;2023-02-15T11:28:38;23.70;77.80
55771;DHT22;41687;-33.234;-60.334;2023-02-15T11:31:24;24.00;77.80
55771;DHT22;41687;-33.234;-60.334;2023-02-15T11:33:58;24.20;77.10
55771;DHT22;41687;-33.234;-60.334;2023-02-15T11:36:33;24.20;75.20
55771;DHT22;41687;-33.234;-60.334;2023-02-15T11:39:09;24.30;75.20
55771;DHT22;41687;-33.234;-60.334;2023-02-15T11:42:01;24.40;75.00
55771;DHT22;41687;-33.234;-60.334;2023-02-15T11:44:39;24.70;75.60
55771;DHT22;41687;-33.234;-60.334;2023-02-15T11:47:11;24.60;74.40
55771;DHT22;41687;-33.234;-60.334;2023-02-15T11:49:38;24.70;73.30
55771;DHT22;41687;-33.234;-60.334;2023-02-15T11:52:10;24.70;73.00
55771;DHT22;41687;-33.234;-60.334;2023-02-15T11:54:48;24.70;73.80
55771;DHT22;41687;-33.234;-60.334;2023-02-15T11:57:48;24.70;73.50
55771;DHT22;41687;-33.234;-60.334;2023-02-15T12:00:39;24.90;74.40
55771;DHT22;41687;-33.234;-60.334;2023-02-15T12:03:43;25.00;73.60
55771;DHT22;41687;-33.234;-60.334;2023-02-15T12:06:34;25.30;73.20
55771;DHT22;41687;-33.234;-60.334;2023-02-15T12:11:46;25.40;72.30
55771;DHT22;41687;-33.234;-60.334;2023-02-15T12:14:14;25.80;71.60
55771;DHT22;41687;-33.234;-60.334;2023-02-15T12:16:50;25.90;71.40
55771;DHT22;41687;-33.234;-60.334;2023-02-15T12:19:36;26.10;71.30
55771;DHT22;41687;-33.234;-60.334;2023-02-15T12:22:06;26.30;70.90
55771;DHT22;41687;-33.234;-60.334;2023-02-15T12:24:46;26.40;70.10
55771;DHT22;41687;-33.234;-60.334;2023-02-15T12:27:21;26.60;69.60
55771;DHT22;41687;-33.234;-60.334;2023-02-15T12:30:07;26.70;69.00
55771;DHT22;41687;-33.234;-60.334;2023-02-15T12:32:56;26.80;68.30
55771;DHT22;41687;-33.234;-60.334;2023-02-15T12:38:23;27.40;67.80
55771;DHT22;41687;-33.234;-60.334;2023-02-15T12:41:03;27.70;66.80
55771;DHT22;41687;-33.234;-60.334;2023-02-15T12:43:34;27.70;66.20
55771;DHT22;41687;-33.234;-60.334;2023-02-15T12:46:21;27.80;66.60
55771;DHT22;41687;-33.234;-60.334;2023-02-15T12:52:04;28.20;65.60
55771;DHT22;41687;-33.234;-60.334;2023-02-15T12:54:41;28.50;65.00
55771;DHT22;41687;-33.234;-60.334;2023-02-15T12:57:41;28.60;65.20
55771;DHT22;41687;-33.234;-60.334;2023-02-15T13:02:52;28.80;64.40
55771;DHT22;41687;-33.234;-60.334;2023-02-15T13:05:31;28.70;65.30
55771;DHT22;41687;-33.234;-60.334;2023-02-15T13:13:34;29.30;63.50
55771;DHT22;41687;-33.234;-60.334;2023-02-15T13:16:05;29.60;62.70
55771;DHT22;41687;-33.234;-60.334;2023-02-15T13:18:45;29.20;61.00
55771;DHT22;41687;-33.234;-60.334;2023-02-15T13:21:15;29.60;62.00
55771;DHT22;41687;-33.234;-60.334;2023-02-15T13:23:47;29.90;62.50
55771;DHT22;41687;-33.234;-60.334;2023-02-15T13:26:19;30.20;62.00
55771;DHT22;41687;-33.234;-60.334;2023-02-15T13:28:54;30.20;60.50
55771;DHT22;41687;-33.234;-60.334;2023-02-15T13:31:28;30.50;61.40
55771;DHT22;41687;-33.234;-60.334;2023-02-15T13:34:38;30.50;61.00
55771;DHT22;41687;-33.234;-60.334;2023-02-15T13:37:20;30.70;60.10
55771;DHT22;41687;-33.234;-60.334;2023-02-15T13:42:52;30.60;59.70
55771;DHT22;41687;-33.234;-60.334;2023-02-15T13:57:22;30.20;58.10
55771;DHT22;41687;-33.234;-60.334;2023-02-15T14:02:50;31.10;58.50
55771;DHT22;41687;-33.234;-60.334;2023-02-15T14:16:24;31.50;54.30
55771;DHT22;41687;-33.234;-60.334;2023-02-15T14:21:47;31.90;57.00
55771;DHT22;41687;-33.234;-60.334;2023-02-15T14:29:59;32.10;54.40
55771;DHT22;41687;-33.234;-60.334;2023-02-15T14:32:41;32.40;53.00
55771;DHT22;41687;-33.234;-60.334;2023-02-15T14:35:29;32.30;54.70
55771;DHT22;41687;-33.234;-60.334;2023-02-15T14:49:27;32.50;52.00
55771;DHT22;41687;-33.234;-60.334;2023-02-15T14:52:00;32.10;51.00
55771;DHT22;41687;-33.234;-60.334;2023-02-15T15:04:41;33.10;52.90
55771;DHT22;41687;-33.234;-60.334;2023-02-15T15:08:19;32.90;51.40
55771;DHT22;41687;-33.234;-60.334;2023-02-15T15:12:47;32.00;49.00
55771;DHT22;41687;-33.234;-60.334;2023-02-15T15:16:23;31.60;49.80
55771;DHT22;41687;-33.234;-60.334;2023-02-15T15:18:47;31.40;49.70
55771;DHT22;41687;-33.234;-60.334;2023-02-15T15:39:16;31.90;48.50
55771;DHT22;41687;-33.234;-60.334;2023-02-15T15:50:19;32.90;51.20
55771;DHT22;41687;-33.234;-60.334;2023-02-15T15:52:58;33.10;50.80
55771;DHT22;41687;-33.234;-60.334;2023-02-15T15:55:29;33.30;49.70
55771;DHT22;41687;-33.234;-60.334;2023-02-15T15:58:03;33.10;47.40
55771;DHT22;41687;-33.234;-60.334;2023-02-15T16:03:24;32.90;47.50
55771;DHT22;41687;-33.234;-60.334;2023-02-15T16:05:53;33.20;49.50
55771;DHT22;41687;-33.234;-60.334;2023-02-15T16:08:35;33.20;49.00
55771;DHT22;41687;-33.234;-60.334;2023-02-15T16:11:27;33.20;50.10
55771;DHT22;41687;-33.234;-60.334;2023-02-15T16:13:56;33.30;45.70
55771;DHT22;41687;-33.234;-60.334;2023-02-15T16:16:28;33.10;48.80
55771;DHT22;41687;-33.234;-60.334;2023-02-15T16:18:57;33.10;48.00
55771;DHT22;41687;-33.234;-60.334;2023-02-15T16:21:36;33.10;48.30
55771;DHT22;41687;-33.234;-60.334;2023-02-15T16:29:52;33.30;47.30
55771;DHT22;41687;-33.234;-60.334;2023-02-15T16:32:24;33.60;48.00
55771;DHT22;41687;-33.234;-60.334;2023-02-15T16:35:01;33.50;46.50
55771;DHT22;41687;-33.234;-60.334;2023-02-15T16:37:34;33.60;46.40
55771;DHT22;41687;-33.234;-60.334;2023-02-15T16:40:02;33.60;47.30
55771;DHT22;41687;-33.234;-60.334;2023-02-15T16:42:29;33.00;44.90
55771;DHT22;41687;-33.234;-60.334;2023-02-15T16:45:08;32.80;47.50
55771;DHT22;41687;-33.234;-60.334;2023-02-15T16:47:41;33.00;45.10
55771;DHT22;41687;-33.234;-60.334;2023-02-15T16:50:22;33.00;46.70
55771;DHT22;41687;-33.234;-60.334;2023-02-15T16:52:52;32.90;44.70
55771;DHT22;41687;-33.234;-60.334;2023-02-15T16:55:23;33.00;47.30
55771;DHT22;41687;-33.234;-60.334;2023-02-15T16:57:55;33.20;46.30
55771;DHT22;41687;-33.234;-60.334;2023-02-15T17:00:30;33.00;47.00
55771;DHT22;41687;-33.234;-60.334;2023-02-15T17:03:42;33.00;45.40
55771;DHT22;41687;-33.234;-60.334;2023-02-15T17:05:54;33.20;46.50
55771;DHT22;41687;-33.234;-60.334;2023-02-15T17:08:32;32.90;46.80
55771;DHT22;41687;-33.234;-60.334;2023-02-15T17:13:36;32.70;46.40
55771;DHT22;41687;-33.234;-60.334;2023-02-15T17:18:43;32.90;48.10
55771;DHT22;41687;-33.234;-60.334;2023-02-15T17:21:18;32.90;45.90
55771;DHT22;41687;-33.234;-60.334;2023-02-15T17:23:51;32.80;45.30
55771;DHT22;41687;-33.234;-60.334;2023-02-15T17:26:24;32.40;45.40
55771;DHT22;41687;-33.234;-60.334;2023-02-15T17:28:57;32.50;45.60
55771;DHT22;41687;-33.234;-60.334;2023-02-15T17:31:28;32.20;44.40
55771;DHT22;41687;-33.234;-60.334;2023-02-15T17:33:59;32.20;45.70
55771;DHT22;41687;-33.234;-60.334;2023-02-15T17:36:28;32.30;47.30
55771;DHT22;41687;-33.234;-60.334;2023-02-15T17:41:25;31.60;45.40
55771;DHT22;41687;-33.234;-60.334;2023-02-15T17:43:53;31.70;44.90
55771;DHT22;41687;-33.234;-60.334;2023-02-15T17:46:20;31.60;46.10
55771;DHT22;41687;-33.234;-60.334;2023-02-15T17:48:54;31.60;44.50
55771;DHT22;41687;-33.234;-60.334;2023-02-15T17:51:23;31.70;46.20
55771;DHT22;41687;-33.234;-60.334;2023-02-15T17:53:50;31.80;43.80
55771;DHT22;41687;-33.234;-60.334;2023-02-15T17:56:38;31.70;45.80
55771;DHT22;41687;-33.234;-60.334;2023-02-15T17:59:05;31.80;45.80
55771;DHT22;41687;-33.234;-60.334;2023-02-15T18:01:43;31.90;45.60
55771;DHT22;41687;-33.234;-60.334;2023-02-15T18:04:31;31.80;42.50
55771;DHT22;41687;-33.234;-60.334;2023-02-15T18:07:19;31.40;43.90
55771;DHT22;41687;-33.234;-60.334;2023-02-15T18:10:18;31.20;44.80
55771;DHT22;41687;-33.234;-60.334;2023-02-15T18:13:04;31.40;43.30
55771;DHT22;41687;-33.234;-60.334;2023-02-15T18:15:31;31.10;44.10
55771;DHT22;41687;-33.234;-60.334;2023-02-15T18:17:59;31.10;44.30
55771;DHT22;41687;-33.234;-60.334;2023-02-15T18:20:34;31.10;42.90
55771;DHT22;41687;-33.234;-60.334;2023-02-15T18:23:08;31.20;41.70
55771;DHT22;41687;-33.234;-60.334;2023-02-15T18:25:36;31.20;42.50
55771;DHT22;41687;-33.234;-60.334;2023-02-15T18:28:03;31.10;43.40
55771;DHT22;41687;-33.234;-60.334;2023-02-15T18:30:33;31.10;42.70
55771;DHT22;41687;-33.234;-60.334;2023-02-15T18:33:00;31.20;44.10
55771;DHT22;41687;-33.234;-60.334;2023-02-15T18:35:31;31.30;43.40
55771;DHT22;41687;-33.234;-60.334;2023-02-15T18:38:00;31.30;42.10
55771;DHT22;41687;-33.234;-60.334;2023-02-15T18:40:28;31.30;43.10
55771;DHT22;41687;-33.234;-60.334;2023-02-15T18:42:56;31.30;42.40
55771;DHT22;41687;-33.234;-60.334;2023-02-15T18:45:25;31.20;40.90
55771;DHT22;41687;-33.234;-60.334;2023-02-15T18:47:58;31.00;42.00
55771;DHT22;41687;-33.234;-60.334;2023-02-15T18:50:30;31.00;43.10
55771;DHT22;41687;-33.234;-60.334;2023-02-15T18:52:59;31.00;43.00
55771;DHT22;41687;-33.234;-60.334;2023-02-15T18:55:29;31.10;43.50
55771;DHT22;41687;-33.234;-60.334;2023-02-15T18:57:58;31.10;43.50
55771;DHT22;41687;-33.234;-60.334;2023-02-15T19:00:31;31.10;43.30
55771;DHT22;41687;-33.234;-60.334;2023-02-15T19:03:00;31.10;43.10